createdAt,value
2018-04-06T00:00:46.279Z,101189.16
2018-04-06T00:01:52.501Z,101190.58
2018-04-06T00:02:58.768Z,101200.12
2018-04-06T00:04:04.656Z,101194.91
2018-04-06T00:05:10.911Z,101194.58
2018-04-06T00:06:17.231Z,101198.52
2018-04-06T00:07:23.274Z,101192.81
2018-04-06T00:08:29.590Z,101198.48
2018-04-06T00:09:35.837Z,101201.09
2018-04-06T00:10:42.071Z,101198.45
2018-04-06T00:11:48.271Z,101196.28
2018-04-06T00:12:54.555Z,101200.98
2018-04-06T00:14:00.799Z,101208.36
2018-04-06T00:15:07.392Z,101210.17
2018-04-06T00:16:13.627Z,101209.37
2018-04-06T00:17:19.812Z,101212.41
2018-04-06T00:18:26.024Z,101216.77
2018-04-06T00:19:32.729Z,101212.84
2018-04-06T00:20:38.980Z,101208.72
2018-04-06T00:21:45.283Z,101213.89
2018-04-06T00:22:52.375Z,101216.98
2018-04-06T00:23:58.403Z,101216.98
2018-04-06T00:25:04.905Z,101216.55
2018-04-06T00:26:11.196Z,101218.77
2018-04-06T00:27:17.477Z,101217.02
2018-04-06T00:28:23.724Z,101219.18
2018-04-06T00:29:30.166Z,101220.50
2018-04-06T00:30:36.448Z,101216.64
2018-04-06T00:31:42.735Z,101219.64
2018-04-06T00:32:48.524Z,101214.87
2018-04-06T00:33:54.848Z,101213.19
2018-04-06T00:35:02.257Z,101210.97
2018-04-06T00:36:08.673Z,101217.41
2018-04-06T00:37:14.983Z,101214.75
2018-04-06T00:38:21.237Z,101209.06
2018-04-06T00:39:28.366Z,101213.37
2018-04-06T00:40:34.888Z,101211.78
2018-04-06T00:41:40.920Z,101211.12
2018-04-06T00:42:47.628Z,101203.69
2018-04-06T00:43:54.211Z,101213.63
2018-04-06T00:45:00.497Z,101211.45
2018-04-06T00:46:06.755Z,101213.16
2018-04-06T00:47:13.032Z,101217.09
2018-04-06T00:48:19.316Z,101223.67
2018-04-06T00:49:25.595Z,101220.16
2018-04-06T00:50:31.904Z,101217.95
2018-04-06T00:51:38.437Z,101227.49
2018-04-06T00:52:44.889Z,101221.42
2018-04-06T00:53:50.942Z,101226.09
2018-04-06T00:54:57.225Z,101232.97
2018-04-06T00:56:03.458Z,101226.90
2018-04-06T00:57:09.716Z,101227.45
2018-04-06T00:58:15.982Z,101227.93
2018-04-06T00:59:21.882Z,101227.91
2018-04-06T01:00:28.551Z,101224.87
2018-04-06T01:01:33.732Z,101227.09
2018-04-06T01:02:41.192Z,101227.06
2018-04-06T01:03:47.592Z,101231.42
2018-04-06T01:04:53.865Z,101231.39
2018-04-06T01:06:00.696Z,101234.05
2018-04-06T01:07:07.072Z,101237.47
2018-04-06T01:08:13.133Z,101241.91
2018-04-06T01:09:19.405Z,101238.80
2018-04-06T01:10:25.692Z,101240.50
2018-04-06T01:11:32.093Z,101245.77
2018-04-06T01:12:38.535Z,101246.19
2018-04-06T01:13:45.259Z,101249.25
2018-04-06T01:14:51.576Z,101250.95
2018-04-06T01:15:57.594Z,101250.16
2018-04-06T01:17:04.125Z,101250.56
2018-04-06T01:18:09.926Z,101254.44
2018-04-06T01:19:16.212Z,101253.13
2018-04-06T01:20:23.059Z,101254.94
2018-04-06T01:21:29.361Z,101252.36
2018-04-06T01:22:40.728Z,101258.06
2018-04-06T01:23:46.957Z,101257.63
2018-04-06T01:24:53.846Z,101256.83
2018-04-06T01:26:00.148Z,101255.95
2018-04-06T01:27:07.091Z,101260.64
2018-04-06T01:28:13.361Z,101258.98
2018-04-06T01:29:19.624Z,101258.54
2018-04-06T01:30:26.787Z,101265.11
2018-04-06T01:31:33.123Z,101269.42
2018-04-06T01:32:39.395Z,101267.24
2018-04-06T01:33:45.667Z,101262.53
2018-04-06T01:34:51.957Z,101267.79
2018-04-06T01:35:58.230Z,101266.04
2018-04-06T01:37:04.569Z,101263.38
2018-04-06T01:38:10.826Z,101266.33
2018-04-06T01:39:17.145Z,101256.34
2018-04-06T01:40:23.418Z,101254.22
2018-04-06T01:41:30.133Z,101258.17
2018-04-06T01:42:36.392Z,101254.69
2018-04-06T01:43:42.669Z,101254.70
2018-04-06T01:44:48.897Z,101254.70
2018-04-06T01:45:55.289Z,101253.35
2018-04-06T01:47:01.522Z,101255.16
2018-04-06T01:48:07.814Z,101254.30
2018-04-06T01:49:14.196Z,101265.14
2018-04-06T01:50:20.421Z,101262.50
2018-04-06T01:51:26.688Z,101264.22
2018-04-06T01:52:32.948Z,101262.92
2018-04-06T01:53:39.211Z,101271.19
2018-04-06T01:54:45.100Z,101265.20
2018-04-06T01:55:51.498Z,101274.77
2018-04-06T01:56:57.784Z,101274.34
2018-04-06T01:58:04.113Z,101268.30
2018-04-06T01:59:10.400Z,101270.06
2018-04-06T02:00:16.683Z,101270.94
2018-04-06T02:01:23.374Z,101264.88
2018-04-06T02:02:29.951Z,101268.78
2018-04-06T02:03:36.196Z,101270.09
2018-04-06T02:04:42.705Z,101267.95
2018-04-06T02:05:48.975Z,101264.92
2018-04-06T02:06:58.277Z,101264.48
2018-04-06T02:08:06.581Z,101270.09
2018-04-06T02:09:12.872Z,101271.40
2018-04-06T02:10:18.895Z,101273.56
2018-04-06T02:11:24.965Z,101276.64
2018-04-06T02:12:31.678Z,101277.48
2018-04-06T02:13:37.932Z,101275.77
2018-04-06T02:14:44.165Z,101273.17
2018-04-06T02:15:50.784Z,101274.02
2018-04-06T02:16:56.782Z,101268.84
2018-04-06T02:18:03.011Z,101266.23
2018-04-06T02:19:09.280Z,101273.61
2018-04-06T02:20:15.447Z,101272.32
2018-04-06T02:21:21.699Z,101270.58
2018-04-06T02:22:33.579Z,101280.52
2018-04-06T02:23:41.822Z,101278.78
2018-04-06T02:24:48.928Z,101272.73
2018-04-06T02:25:55.584Z,101272.73
2018-04-06T02:27:01.828Z,101276.17
2018-04-06T02:28:07.816Z,101271.41
2018-04-06T02:29:13.876Z,101271.45
2018-04-06T02:30:21.039Z,101270.98
2018-04-06T02:31:28.172Z,101269.25
2018-04-06T02:32:34.764Z,101272.70
2018-04-06T02:33:41.642Z,101282.66
2018-04-06T02:34:48.611Z,101275.27
2018-04-06T02:35:54.995Z,101283.93
2018-04-06T02:37:01.213Z,101283.49
2018-04-06T02:38:07.459Z,101277.89
2018-04-06T02:39:13.728Z,101274.86
2018-04-06T02:40:19.965Z,101271.41
2018-04-06T02:41:25.997Z,101274.42
2018-04-06T02:42:32.305Z,101276.14
2018-04-06T02:43:41.164Z,101281.75
2018-04-06T02:44:52.347Z,101277.41
2018-04-06T02:45:58.593Z,101282.16
2018-04-06T02:47:05.775Z,101274.39
2018-04-06T02:48:12.745Z,101276.14
2018-04-06T02:49:19.433Z,101278.72
2018-04-06T02:50:25.698Z,101282.14
2018-04-06T02:51:31.922Z,101284.73
2018-04-06T02:52:38.144Z,101282.98
2018-04-06T02:53:44.581Z,101281.69
2018-04-06T02:54:50.823Z,101284.26
2018-04-06T02:55:57.187Z,101284.69
2018-04-06T02:57:04.441Z,101282.93
2018-04-06T02:58:11.307Z,101291.17
2018-04-06T02:59:18.441Z,101290.38
2018-04-06T03:00:25.254Z,101287.34
2018-04-06T03:01:31.527Z,101296.82
2018-04-06T03:02:37.765Z,101299.41
2018-04-06T03:03:44.336Z,101299.84
2018-04-06T03:04:50.619Z,101303.67
2018-04-06T03:05:57.995Z,101305.83
2018-04-06T03:07:05.115Z,101304.54
2018-04-06T03:08:12.330Z,101306.68
2018-04-06T03:09:19.754Z,101309.33
2018-04-06T03:10:26.152Z,101308.04
2018-04-06T03:11:32.364Z,101310.17
2018-04-06T03:12:39.402Z,101309.30
2018-04-06T03:13:46.016Z,101310.59
2018-04-06T03:14:52.271Z,101320.48
2018-04-06T03:15:58.547Z,101314.47
2018-04-06T03:17:04.800Z,101314.89
2018-04-06T03:18:11.393Z,101320.94
2018-04-06T03:19:18.590Z,101319.21
2018-04-06T03:20:24.810Z,101323.52
2018-04-06T03:21:31.142Z,101326.58
2018-04-06T03:22:38.066Z,101327.40
2018-04-06T03:23:44.386Z,101332.09
2018-04-06T03:24:50.626Z,101332.97
2018-04-06T03:26:00.541Z,101343.77
2018-04-06T03:27:06.769Z,101339.01
2018-04-06T03:28:13.014Z,101348.07
2018-04-06T03:29:19.226Z,101345.05
2018-04-06T03:30:25.700Z,101345.48
2018-04-06T03:31:31.953Z,101345.45
2018-04-06T03:32:38.532Z,101348.88
2018-04-06T03:33:44.781Z,101345.91
2018-04-06T03:34:51.947Z,101343.30
2018-04-06T03:35:58.173Z,101347.27
2018-04-06T03:37:04.515Z,101352.05
2018-04-06T03:38:11.254Z,101342.96
2018-04-06T03:39:17.522Z,101348.06
2018-04-06T03:40:24.762Z,101348.09
2018-04-06T03:41:31.779Z,101350.65
2018-04-06T03:42:38.153Z,101352.33
2018-04-06T03:43:44.747Z,101356.22
2018-04-06T03:44:51.368Z,101347.64
2018-04-06T03:45:58.431Z,101360.05
2018-04-06T03:47:08.622Z,101353.69
2018-04-06T03:48:15.088Z,101346.30
2018-04-06T03:49:21.542Z,101348.89
2018-04-06T03:50:27.967Z,101348.09
2018-04-06T03:51:34.519Z,101348.11
2018-04-06T03:52:40.826Z,101345.96
2018-04-06T03:53:47.489Z,101342.53
2018-04-06T03:54:53.942Z,101345.97
2018-04-06T03:56:00.282Z,101347.69
2018-04-06T03:57:07.161Z,101343.39
2018-04-06T03:58:13.795Z,101347.70
2018-04-06T03:59:20.180Z,101348.16
2018-04-06T04:00:26.503Z,101357.59
2018-04-06T04:01:32.809Z,101358.85
2018-04-06T04:02:39.039Z,101354.55
2018-04-06T04:03:46.503Z,101362.23
2018-04-06T04:04:55.299Z,101357.90
2018-04-06T04:06:01.746Z,101354.06
2018-04-06T04:07:08.253Z,101357.87
2018-04-06T04:08:15.216Z,101353.19
2018-04-06T04:09:22.657Z,101357.92
2018-04-06T04:10:29.363Z,101357.51
2018-04-06T04:11:35.362Z,101356.19
2018-04-06T04:12:41.296Z,101356.20
2018-04-06T04:13:47.602Z,101358.30
2018-04-06T04:14:54.709Z,101358.27
2018-04-06T04:16:00.700Z,101361.32
2018-04-06T04:17:07.521Z,101361.39
2018-04-06T04:18:14.643Z,101360.06
2018-04-06T04:19:20.911Z,101360.49
2018-04-06T04:20:27.289Z,101361.00
2018-04-06T04:21:33.595Z,101365.30
2018-04-06T04:22:40.677Z,101363.98
2018-04-06T04:23:47.062Z,101368.26
2018-04-06T04:24:54.186Z,101364.80
2018-04-06T04:26:01.759Z,101363.49
2018-04-06T04:27:08.004Z,101372.06
2018-04-06T04:28:15.773Z,101368.67
2018-04-06T04:29:23.659Z,101372.50
2018-04-06T04:30:30.676Z,101370.71
2018-04-06T04:31:37.401Z,101381.94
2018-04-06T04:32:43.616Z,101374.22
2018-04-06T04:33:49.866Z,101374.30
2018-04-06T04:34:57.102Z,101381.55
2018-04-06T04:36:03.368Z,101379.02
2018-04-06T04:37:09.677Z,101373.88
2018-04-06T04:38:16.606Z,101375.98
2018-04-06T04:39:22.854Z,101380.70
2018-04-06T04:40:29.154Z,101382.45
2018-04-06T04:41:35.426Z,101384.57
2018-04-06T04:42:44.496Z,101376.84
2018-04-06T04:43:50.707Z,101382.42
2018-04-06T04:44:57.709Z,101383.73
2018-04-06T04:46:03.975Z,101379.82
2018-04-06T04:47:10.648Z,101386.41
2018-04-06T04:48:17.885Z,101382.59
2018-04-06T04:49:26.218Z,101390.27
2018-04-06T04:50:32.787Z,101391.11
2018-04-06T04:51:39.936Z,101387.21
2018-04-06T04:52:47.184Z,101393.65
2018-04-06T04:53:53.607Z,101392.78
2018-04-06T04:55:00.343Z,101393.71
2018-04-06T04:56:07.309Z,101387.22
2018-04-06T04:57:15.150Z,101391.55
2018-04-06T04:58:21.181Z,101390.72
2018-04-06T04:59:28.419Z,101388.47
2018-04-06T05:00:34.740Z,101386.80
2018-04-06T05:01:41.768Z,101385.39
2018-04-06T05:02:47.986Z,101385.36
2018-04-06T05:03:54.710Z,101379.77
2018-04-06T05:05:01.061Z,101383.35
2018-04-06T05:06:07.455Z,101388.51
2018-04-06T05:07:14.208Z,101387.64
2018-04-06T05:08:20.457Z,101389.02
2018-04-06T05:09:27.529Z,101383.06
2018-04-06T05:10:33.741Z,101388.74
2018-04-06T05:11:41.415Z,101393.88
2018-04-06T05:12:47.967Z,101391.73
2018-04-06T05:13:55.266Z,101399.11
2018-04-06T05:15:01.864Z,101398.28
2018-04-06T05:16:08.152Z,101392.63
2018-04-06T05:17:14.413Z,101398.70
2018-04-06T05:18:21.105Z,101394.34
2018-04-06T05:19:28.155Z,101394.31
2018-04-06T05:20:35.183Z,101388.21
2018-04-06T05:21:42.056Z,101392.55
2018-04-06T05:22:48.845Z,101398.61
2018-04-06T05:23:55.920Z,101395.70
2018-04-06T05:25:02.586Z,101398.34
2018-04-06T05:26:09.432Z,101399.75
2018-04-06T05:27:15.404Z,101401.53
2018-04-06T05:28:22.305Z,101395.09
2018-04-06T05:29:29.538Z,101403.33
2018-04-06T05:30:36.754Z,101405.47
2018-04-06T05:31:44.749Z,101407.19
2018-04-06T05:32:51.592Z,101402.05
2018-04-06T05:33:57.853Z,101406.39
2018-04-06T05:35:06.080Z,101405.51
2018-04-06T05:36:13.471Z,101401.20
2018-04-06T05:37:20.536Z,101411.59
2018-04-06T05:38:29.235Z,101411.58
2018-04-06T05:39:36.596Z,101411.99
2018-04-06T05:40:46.772Z,101410.27
2018-04-06T05:41:53.013Z,101408.97
2018-04-06T05:42:59.440Z,101418.84
2018-04-06T05:44:05.866Z,101416.17
2018-04-06T05:45:12.102Z,101419.12
2018-04-06T05:46:18.744Z,101416.09
2018-04-06T05:47:24.833Z,101416.89
2018-04-06T05:48:31.048Z,101419.06
2018-04-06T05:49:37.450Z,101415.50
2018-04-06T05:50:43.745Z,101419.87
2018-04-06T05:51:51.021Z,101414.17
2018-04-06T05:52:57.343Z,101417.19
2018-04-06T05:54:03.786Z,101409.28
2018-04-06T05:55:10.032Z,101414.48
2018-04-06T05:56:16.308Z,101414.40
2018-04-06T05:57:22.540Z,101409.59
2018-04-06T05:58:28.790Z,101414.77
2018-04-06T05:59:35.025Z,101410.82
2018-04-06T06:00:41.312Z,101413.13
2018-04-06T06:01:47.582Z,101416.52
2018-04-06T06:02:53.794Z,101419.15
2018-04-06T06:04:00.000Z,101420.84
2018-04-06T06:05:06.218Z,101423.95
2018-04-06T06:06:12.471Z,101416.03
2018-04-06T06:07:18.720Z,101418.64
2018-04-06T06:08:24.942Z,101426.50
2018-04-06T06:09:31.130Z,101426.29
2018-04-06T06:10:37.324Z,101418.76
2018-04-06T06:11:43.582Z,101423.44
2018-04-06T06:12:52.728Z,101423.94
2018-04-06T06:13:58.986Z,101422.50
2018-04-06T06:15:05.050Z,101421.13
2018-04-06T06:16:11.260Z,101427.98
2018-04-06T06:17:17.486Z,101425.30
2018-04-06T06:18:23.398Z,101426.41
2018-04-06T06:19:29.628Z,101424.94
2018-04-06T06:20:35.625Z,101428.70
2018-04-06T06:21:41.849Z,101427.14
2018-04-06T06:22:48.050Z,101433.05
2018-04-06T06:23:54.249Z,101433.08
2018-04-06T06:25:00.485Z,101436.92
2018-04-06T06:26:07.103Z,101442.93
2018-04-06T06:27:13.508Z,101449.13
2018-04-06T06:28:19.699Z,101443.84
2018-04-06T06:29:25.890Z,101440.08
2018-04-06T06:30:32.075Z,101444.27
2018-04-06T06:31:38.259Z,101441.34
2018-04-06T06:32:44.432Z,101446.86
2018-04-06T06:33:55.835Z,101442.69
2018-04-06T06:35:02.398Z,101443.83
2018-04-06T06:36:08.604Z,101442.88
2018-04-06T06:37:14.768Z,101444.23
2018-04-06T06:38:20.991Z,101443.33
2018-04-06T06:39:27.190Z,101446.56
2018-04-06T06:40:33.370Z,101444.30
2018-04-06T06:41:39.545Z,101451.50
2018-04-06T06:42:45.732Z,101452.80
2018-04-06T06:43:52.048Z,101451.26
2018-04-06T06:44:58.258Z,101453.87
2018-04-06T06:46:04.464Z,101455.55
2018-04-06T06:47:10.974Z,101455.06
2018-04-06T06:48:17.199Z,101459.42
2018-04-06T06:49:22.886Z,101461.48
2018-04-06T06:50:29.123Z,101461.16
2018-04-06T06:51:35.304Z,101454.16
2018-04-06T06:52:41.476Z,101458.11
2018-04-06T06:53:47.673Z,101461.81
2018-04-06T06:54:53.889Z,101464.80
2018-04-06T06:56:00.096Z,101463.17
2018-04-06T06:57:06.329Z,101463.47
2018-04-06T06:58:12.697Z,101461.44
2018-04-06T06:59:20.880Z,101460.03
2018-04-06T07:00:27.060Z,101467.09
2018-04-06T07:01:33.299Z,101469.61
2018-04-06T07:02:39.185Z,101472.23
2018-04-06T07:03:45.408Z,101465.35
2018-04-06T07:04:51.703Z,101465.66
2018-04-06T07:05:57.944Z,101469.02
2018-04-06T07:07:03.815Z,101468.36
2018-04-06T07:08:10.425Z,101474.20
2018-04-06T07:09:16.747Z,101470.91
2018-04-06T07:10:22.990Z,101475.62
2018-04-06T07:11:29.229Z,101480.70
2018-04-06T07:12:35.434Z,101475.47
2018-04-06T07:13:41.679Z,101477.14
2018-04-06T07:14:47.967Z,101486.17
2018-04-06T07:15:54.190Z,101477.64
2018-04-06T07:17:00.427Z,101475.90
2018-04-06T07:18:06.657Z,101477.76
2018-04-06T07:19:12.904Z,101472.28
2018-04-06T07:20:19.453Z,101481.03
2018-04-06T07:21:25.630Z,101478.82
2018-04-06T07:22:31.829Z,101470.83
2018-04-06T07:23:38.013Z,101473.34
2018-04-06T07:24:44.198Z,101481.50
2018-04-06T07:25:50.387Z,101479.06
2018-04-06T07:26:56.604Z,101471.98
2018-04-06T07:28:02.873Z,101476.03
2018-04-06T07:29:09.119Z,101475.22
2018-04-06T07:30:15.317Z,101470.87
2018-04-06T07:31:21.590Z,101468.90
2018-04-06T07:32:27.880Z,101470.33
2018-04-06T07:33:34.280Z,101471.81
2018-04-06T07:34:40.540Z,101467.78
2018-04-06T07:35:48.689Z,101466.66
2018-04-06T07:36:55.500Z,101467.82
2018-04-06T07:38:01.733Z,101468.55
2018-04-06T07:39:07.341Z,101469.44
2018-04-06T07:40:13.303Z,101464.14
2018-04-06T07:41:19.570Z,101469.39
2018-04-06T07:42:26.133Z,101471.47
2018-04-06T07:43:41.440Z,101467.35
2018-04-06T07:44:47.680Z,101469.74
2018-04-06T07:45:53.982Z,101469.89
2018-04-06T07:47:00.410Z,101472.28
2018-04-06T07:48:06.730Z,101472.27
2018-04-06T07:49:12.957Z,101476.45
2018-04-06T07:50:19.197Z,101470.18
2018-04-06T07:51:25.427Z,101469.16
2018-04-06T07:52:31.744Z,101465.81
2018-04-06T07:53:38.155Z,101469.23
2018-04-06T07:54:44.411Z,101468.28
2018-04-06T07:55:50.632Z,101472.72
2018-04-06T07:57:04.129Z,101475.06
2018-04-06T07:58:10.560Z,101472.52
2018-04-06T07:59:16.807Z,101468.86
2018-04-06T08:00:23.031Z,101462.73
2018-04-06T08:01:29.322Z,101466.03
2018-04-06T08:02:35.582Z,101471.09
2018-04-06T08:03:41.851Z,101469.92
2018-04-06T08:04:48.092Z,101469.62
2018-04-06T08:05:54.325Z,101469.33
2018-04-06T08:07:00.569Z,101464.39
2018-04-06T08:08:06.572Z,101467.67
2018-04-06T08:09:12.943Z,101470.91
2018-04-06T08:10:19.195Z,101464.69
2018-04-06T08:11:25.452Z,101469.45
2018-04-06T08:12:31.564Z,101469.83
2018-04-06T08:13:37.851Z,101466.98
2018-04-06T08:14:44.065Z,101466.38
2018-04-06T08:15:50.323Z,101466.64
2018-04-06T08:16:56.398Z,101464.91
2018-04-06T08:18:02.660Z,101458.75
2018-04-06T08:19:08.645Z,101462.97
2018-04-06T08:20:14.937Z,101469.03
2018-04-06T08:21:21.585Z,101465.15
2018-04-06T08:22:27.865Z,101466.23
2018-04-06T08:23:34.177Z,101466.40
2018-04-06T08:24:40.468Z,101464.02
2018-04-06T08:25:46.678Z,101461.67
2018-04-06T08:26:52.653Z,101459.16
2018-04-06T08:27:58.933Z,101461.48
2018-04-06T08:29:05.192Z,101462.09
2018-04-06T08:30:11.463Z,101459.44
2018-04-06T08:31:17.706Z,101461.71
2018-04-06T08:32:24.141Z,101467.84
2018-04-06T08:33:30.354Z,101461.00
2018-04-06T08:34:36.790Z,101468.46
2018-04-06T08:35:43.025Z,101464.90
2018-04-06T08:36:49.250Z,101468.56
2018-04-06T08:37:55.470Z,101474.98
2018-04-06T08:39:08.615Z,101474.26
2018-04-06T08:40:15.121Z,101472.80
2018-04-06T08:41:21.496Z,101473.59
2018-04-06T08:42:27.773Z,101473.08
2018-04-06T08:43:34.155Z,101475.47
2018-04-06T08:44:40.370Z,101479.64
2018-04-06T08:45:46.682Z,101478.76
2018-04-06T08:46:52.905Z,101477.80
2018-04-06T08:47:59.102Z,101479.22
2018-04-06T08:49:05.124Z,101476.21
2018-04-06T08:50:11.382Z,101470.03
2018-04-06T08:51:17.772Z,101475.92
2018-04-06T08:52:24.040Z,101475.26
2018-04-06T08:53:30.310Z,101482.25
2018-04-06T08:54:36.553Z,101476.84
2018-04-06T08:55:42.757Z,101472.31
2018-04-06T08:56:49.051Z,101472.16
2018-04-06T08:57:55.289Z,101473.06
2018-04-06T08:59:01.556Z,101464.67
2018-04-06T09:00:13.541Z,101465.92
2018-04-06T09:01:21.389Z,101473.30
2018-04-06T09:02:27.617Z,101475.52
2018-04-06T09:03:33.841Z,101470.38
2018-04-06T09:04:40.100Z,101469.67
2018-04-06T09:05:46.460Z,101471.37
2018-04-06T09:06:52.341Z,101471.99
2018-04-06T09:07:58.564Z,101468.00
2018-04-06T09:09:03.875Z,101474.47
2018-04-06T09:10:10.089Z,101478.05
2018-04-06T09:11:16.373Z,101471.97
2018-04-06T09:12:22.622Z,101477.88
2018-04-06T09:13:28.851Z,101480.90
2018-04-06T09:14:35.077Z,101477.80
2018-04-06T09:15:41.046Z,101472.93
2018-04-06T09:16:47.021Z,101474.04
2018-04-06T09:17:53.272Z,101473.44
2018-04-06T09:18:59.300Z,101469.03
2018-04-06T09:20:05.727Z,101467.22
2018-04-06T09:21:19.213Z,101471.17
2018-04-06T09:22:26.256Z,101465.17
2018-04-06T09:23:32.548Z,101471.93
2018-04-06T09:24:38.777Z,101465.47
2018-04-06T09:25:45.024Z,101465.00
2018-04-06T09:26:51.312Z,101464.03
2018-04-06T09:27:57.558Z,101464.09
2018-04-06T09:29:03.815Z,101464.37
2018-04-06T09:30:10.299Z,101457.30
2018-04-06T09:31:16.923Z,101456.30
2018-04-06T09:32:23.144Z,101455.72
2018-04-06T09:33:29.408Z,101452.50
2018-04-06T09:34:35.675Z,101450.98
2018-04-06T09:35:41.907Z,101451.95
2018-04-06T09:36:48.132Z,101449.88
2018-04-06T09:37:54.392Z,101444.41
2018-04-06T09:39:00.620Z,101446.52
2018-04-06T09:40:06.853Z,101446.23
2018-04-06T09:41:13.126Z,101444.89
2018-04-06T09:42:19.483Z,101448.13
2018-04-06T09:43:30.237Z,101453.14
2018-04-06T09:44:37.339Z,101449.67
2018-04-06T09:45:43.929Z,101450.59
2018-04-06T09:46:50.213Z,101450.25
2018-04-06T09:47:56.438Z,101451.80
2018-04-06T09:49:02.668Z,101457.01
2018-04-06T09:50:08.688Z,101449.44
2018-04-06T09:51:15.103Z,101445.95
2018-04-06T09:52:21.380Z,101443.45
2018-04-06T09:53:27.609Z,101446.20
2018-04-06T09:54:33.822Z,101443.80
2018-04-06T09:55:39.992Z,101448.48
2018-04-06T09:56:46.188Z,101440.02
2018-04-06T09:57:52.379Z,101434.62
2018-04-06T09:58:58.640Z,101439.78
2018-04-06T10:00:04.273Z,101424.92
2018-04-06T10:01:10.394Z,101424.35
2018-04-06T10:02:16.477Z,101423.42
2018-04-06T10:03:22.880Z,101422.14
2018-04-06T10:04:29.158Z,101419.12
2018-04-06T10:05:35.398Z,101422.58
2018-04-06T10:06:41.648Z,101421.80
2018-04-06T10:07:47.945Z,101420.63
2018-04-06T10:08:53.948Z,101418.75
2018-04-06T10:10:00.379Z,101414.71
2018-04-06T10:11:06.465Z,101418.05
2018-04-06T10:12:12.790Z,101418.42
2018-04-06T10:13:19.012Z,101418.34
2018-04-06T10:14:25.492Z,101412.25
2018-04-06T10:15:31.752Z,101410.19
2018-04-06T10:16:37.994Z,101408.53
2018-04-06T10:17:44.010Z,101411.13
2018-04-06T10:18:50.253Z,101405.63
2018-04-06T10:19:56.659Z,101407.59
2018-04-06T10:21:03.033Z,101409.47
2018-04-06T10:22:09.351Z,101406.66
2018-04-06T10:23:15.611Z,101405.05
2018-04-06T10:24:21.927Z,101403.63
2018-04-06T10:25:28.198Z,101397.88
2018-04-06T10:26:34.468Z,101399.20
2018-04-06T10:27:40.460Z,101396.00
2018-04-06T10:28:46.749Z,101395.47
2018-04-06T10:29:53.028Z,101390.89
2018-04-06T10:30:59.832Z,101394.34
2018-04-06T10:32:06.098Z,101390.88
2018-04-06T10:33:12.376Z,101390.69
2018-04-06T10:34:18.614Z,101389.80
2018-04-06T10:35:24.925Z,101390.22
2018-04-06T10:36:30.978Z,101384.25
2018-04-06T10:37:37.314Z,101379.78
2018-04-06T10:38:43.582Z,101379.87
2018-04-06T10:39:49.841Z,101388.95
2018-04-06T10:40:56.122Z,101391.53
2018-04-06T10:42:03.319Z,101391.25
2018-04-06T10:43:09.591Z,101379.75
2018-04-06T10:44:15.836Z,101386.55
2018-04-06T10:45:22.165Z,101379.61
2018-04-06T10:46:29.528Z,101378.73
2018-04-06T10:47:35.829Z,101378.45
2018-04-06T10:48:42.145Z,101375.77
2018-04-06T10:49:48.432Z,101376.83
2018-04-06T10:50:54.773Z,101375.99
2018-04-06T10:52:01.058Z,101366.65
2018-04-06T10:53:07.333Z,101368.52
2018-04-06T10:54:13.546Z,101367.73
2018-04-06T10:55:20.274Z,101366.30
2018-04-06T10:56:26.778Z,101356.12
2018-04-06T10:57:33.051Z,101358.56
2018-04-06T10:58:39.374Z,101362.71
2018-04-06T10:59:45.682Z,101355.16
2018-04-06T11:00:52.010Z,101357.39
2018-04-06T11:01:58.224Z,101357.92
2018-04-06T11:03:04.477Z,101358.50
2018-04-06T11:04:10.747Z,101358.72
2018-04-06T11:05:17.289Z,101349.72
2018-04-06T11:06:24.366Z,101347.28
2018-04-06T11:07:30.586Z,101354.00
2018-04-06T11:08:37.460Z,101347.51
2018-04-06T11:09:43.689Z,101352.02
2018-04-06T11:10:49.948Z,101348.50
2018-04-06T11:11:56.282Z,101342.85
2018-04-06T11:13:02.504Z,101344.14
2018-04-06T11:14:08.766Z,101340.94
2018-04-06T11:15:14.995Z,101338.25
2018-04-06T11:16:21.346Z,101344.91
2018-04-06T11:17:28.210Z,101346.67
2018-04-06T11:18:34.555Z,101342.91
2018-04-06T11:19:40.945Z,101339.31
2018-04-06T11:20:47.252Z,101336.52
2018-04-06T11:21:53.577Z,101328.50
2018-04-06T11:22:59.927Z,101331.20
2018-04-06T11:24:06.409Z,101327.36
2018-04-06T11:25:12.619Z,101332.09
2018-04-06T11:26:18.847Z,101325.55
2018-04-06T11:27:32.676Z,101333.09
2018-04-06T11:28:39.309Z,101333.86
2018-04-06T11:29:45.562Z,101327.72
2018-04-06T11:30:51.960Z,101329.12
2018-04-06T11:31:57.938Z,101340.82
2018-04-06T11:33:04.238Z,101333.75
2018-04-06T11:34:10.479Z,101334.64
2018-04-06T11:35:16.783Z,101335.95
2018-04-06T11:36:23.049Z,101336.61
2018-04-06T11:37:29.461Z,101333.52
2018-04-06T11:38:35.761Z,101329.05
2018-04-06T11:39:41.999Z,101329.92
2018-04-06T11:40:48.254Z,101327.70
2018-04-06T11:41:54.604Z,101323.61
2018-04-06T11:43:01.445Z,101329.51
2018-04-06T11:44:07.701Z,101316.20
2018-04-06T11:45:14.157Z,101320.77
2018-04-06T11:46:20.335Z,101316.80
2018-04-06T11:47:26.568Z,101316.11
2018-04-06T11:48:38.358Z,101319.25
2018-04-06T11:49:45.127Z,101316.30
2018-04-06T11:50:51.561Z,101311.67
2018-04-06T11:51:57.829Z,101316.88
2018-04-06T11:53:04.092Z,101319.30
2018-04-06T11:54:10.384Z,101320.14
2018-04-06T11:55:16.789Z,101320.11
2018-04-06T11:56:23.044Z,101317.41
2018-04-06T11:57:29.301Z,101319.52
2018-04-06T11:58:35.551Z,101315.30
2018-04-06T11:59:41.792Z,101310.83
2018-04-06T12:00:48.050Z,101319.23
2018-04-06T12:01:54.588Z,101317.44
2018-04-06T12:03:00.815Z,101328.05
2018-04-06T12:04:07.068Z,101315.42
2018-04-06T12:05:13.334Z,101316.74
2018-04-06T12:06:19.652Z,101313.28
2018-04-06T12:07:25.804Z,101317.20
2018-04-06T12:08:32.630Z,101316.62
2018-04-06T12:09:39.031Z,101315.45
2018-04-06T12:10:45.301Z,101318.09
2018-04-06T12:11:51.564Z,101313.83
2018-04-06T12:12:57.544Z,101317.27
2018-04-06T12:14:03.893Z,101314.67
2018-04-06T12:15:10.345Z,101310.30
2018-04-06T12:16:16.668Z,101317.31
2018-04-06T12:17:23.013Z,101312.85
2018-04-06T12:18:29.304Z,101311.81
2018-04-06T12:19:35.683Z,101309.95
2018-04-06T12:20:41.930Z,101308.74
2018-04-06T12:21:48.270Z,101308.80
2018-04-06T12:22:54.535Z,101313.27
2018-04-06T12:24:00.756Z,101314.66
2018-04-06T12:25:06.708Z,101301.36
2018-04-06T12:26:12.972Z,101308.44
2018-04-06T12:27:19.238Z,101302.33
2018-04-06T12:28:25.272Z,101301.53
2018-04-06T12:29:31.582Z,101301.44
2018-04-06T12:30:37.647Z,101293.86
2018-04-06T12:31:44.536Z,101295.22
2018-04-06T12:32:50.939Z,101293.86
2018-04-06T12:33:57.210Z,101294.63
2018-04-06T12:35:03.616Z,101300.48
2018-04-06T12:36:09.880Z,101300.43
2018-04-06T12:37:15.654Z,101303.11
2018-04-06T12:38:21.922Z,101293.25
2018-04-06T12:39:28.176Z,101294.52